sensor_id;sensor_type;location;lat;lon;timestamp;pressure;altitude;pressure_sealevel;temperature;humidity
32320;BME280;19080;51.750;5.888;2023-04-19T00:02:10;102479.00;;;10.96;100.00
32320;BME280;19080;51.750;5.888;2023-04-19T00:04:38;102505.50;;;11.17;100.00
32320;BME280;19080;51.750;5.888;2023-04-19T00:07:05;102469.34;;;10.98;100.00
32320;BME280;19080;51.750;5.888;2023-04-19T00:09:33;102468.19;;;10.91;100.00
32320;BME280;19080;51.750;5.888;2023-04-19T00:11:59;102516.13;;;11.17;100.00
32320;BME280;19080;51.750;5.888;2023-04-19T00:14:26;102491.00;;;11.08;100.00
32320;BME280;19080;51.750;5.888;2023-04-19T00:16:53;102494.75;;;11.14;100.00
32320;BME280;19080;51.750;5.888;2023-04-19T00:19:20;102508.22;;;11.18;100.00
32320;BME280;19080;51.750;5.888;2023-04-19T00:21:48;102488.00;;;10.99;100.00
32320;BME280;19080;51.750;5.888;2023-04-19T00:24:14;102465.75;;;10.97;100.00
32320;BME280;19080;51.750;5.888;2023-04-19T00:26:41;102496.69;;;11.18;100.00
32320;BME280;19080;51.750;5.888;2023-04-19T00:29:08;102505.56;;;11.18;100.00
32320;BME280;19080;51.750;5.888;2023-04-19T00:31:37;102456.81;;;10.95;100.00
32320;BME280;19080;51.750;5.888;2023-04-19T00:34:05;102493.97;;;11.16;100.00
32320;BME280;19080;51.750;5.888;2023-04-19T00:36:32;102476.75;;;11.06;100.00
32320;BME280;19080;51.750;5.888;2023-04-19T00:38:58;102479.34;;;11.05;100.00
32320;BME280;19080;51.750;5.888;2023-04-19T00:41:25;102463.00;;;10.94;100.00
32320;BME280;19080;51.750;5.888;2023-04-19T00:43:53;102356.22;;;10.36;100.00
32320;BME280;19080;51.750;5.888;2023-04-19T00:46:20;102476.75;;;11.06;100.00
32320;BME280;19080;51.750;5.888;2023-04-19T00:48:48;102479.66;;;11.13;100.00
32320;BME280;19080;51.750;5.888;2023-04-19T00:51:15;102438.97;;;10.91;100.00
32320;BME280;19080;51.750;5.888;2023-04-19T00:53:42;102486.19;;;11.21;100.00
32320;BME280;19080;51.750;5.888;2023-04-19T00:56:09;102462.03;;;11.15;100.00
32320;BME280;19080;51.750;5.888;2023-04-19T00:58:37;102453.88;;;11.10;100.00
32320;BME280;19080;51.750;5.888;2023-04-19T01:01:04;102465.16;;;11.27;100.00
32320;BME280;19080;51.750;5.888;2023-04-19T01:03:32;102483.75;;;11.27;100.00
32320;BME280;19080;51.750;5.888;2023-04-19T01:06:00;102434.13;;;11.03;100.00
32320;BME280;19080;51.750;5.888;2023-04-19T01:08:28;102459.47;;;11.18;100.00
32320;BME280;19080;51.750;5.888;2023-04-19T01:10:55;102424.22;;;10.99;100.00
32320;BME280;19080;51.750;5.888;2023-04-19T01:13:21;102415.03;;;10.91;100.00
32320;BME280;19080;51.750;5.888;2023-04-19T01:15:48;102441.44;;;11.09;100.00
32320;BME280;19080;51.750;5.888;2023-04-19T01:18:16;102472.03;;;11.22;100.00
32320;BME280;19080;51.750;5.888;2023-04-19T01:20:44;102443.19;;;11.08;100.00
32320;BME280;19080;51.750;5.888;2023-04-19T01:23:11;102469.31;;;11.20;100.00
32320;BME280;19080;51.750;5.888;2023-04-19T01:25:38;102466.59;;;11.19;100.00
32320;BME280;19080;51.750;5.888;2023-04-19T01:28:06;102432.78;;;10.92;100.00
32320;BME280;19080;51.750;5.888;2023-04-19T01:30:34;102420.19;;;10.87;100.00
32320;BME280;19080;51.750;5.888;2023-04-19T01:33:01;102433.88;;;10.97;100.00
32320;BME280;19080;51.750;5.888;2023-04-19T01:35:28;102420.19;;;10.87;100.00
32320;BME280;19080;51.750;5.888;2023-04-19T01:37:55;102449.66;;;10.93;100.00
32320;BME280;19080;51.750;5.888;2023-04-19T01:40:25;102415.03;;;10.69;100.00
32320;BME280;19080;51.750;5.888;2023-04-19T01:42:51;102470.84;;;10.91;100.00
32320;BME280;19080;51.750;5.888;2023-04-19T01:45:18;102436.28;;;10.69;100.00
32320;BME280;19080;51.750;5.888;2023-04-19T01:47:49;102436.56;;;10.54;100.00
32320;BME280;19080;51.750;5.888;2023-04-19T01:50:15;102376.59;;;10.16;100.00
32320;BME280;19080;51.750;5.888;2023-04-19T01:52:42;102449.13;;;10.58;100.00
32320;BME280;19080;51.750;5.888;2023-04-19T01:55:09;102432.19;;;10.55;100.00
32320;BME280;19080;51.750;5.888;2023-04-19T01:57:36;102478.31;;;10.79;100.00
32320;BME280;19080;51.750;5.888;2023-04-19T02:00:03;102468.66;;;10.81;100.00
32320;BME280;19080;51.750;5.888;2023-04-19T02:02:42;102450.66;;;10.74;100.00
32320;BME280;19080;51.750;5.888;2023-04-19T02:05:09;102405.50;;;10.52;100.00
32320;BME280;19080;51.750;5.888;2023-04-19T02:07:36;102426.75;;;10.74;100.00
32320;BME280;19080;51.750;5.888;2023-04-19T02:10:04;102435.88;;;10.81;100.00
32320;BME280;19080;51.750;5.888;2023-04-19T02:12:33;102423.31;;;10.76;100.00
32320;BME280;19080;51.750;5.888;2023-04-19T02:15:02;102446.94;;;10.91;100.00
32320;BME280;19080;51.750;5.888;2023-04-19T02:17:29;102440.53;;;10.86;100.00
32320;BME280;19080;51.750;5.888;2023-04-19T02:19:57;102457.97;;;11.02;100.00
32320;BME280;19080;51.750;5.888;2023-04-19T02:22:25;102430.81;;;10.87;100.00
32320;BME280;19080;51.750;5.888;2023-04-19T02:24:52;102441.72;;;10.94;100.00
32320;BME280;19080;51.750;5.888;2023-04-19T02:27:25;102463.47;;;11.06;100.00
32320;BME280;19080;51.750;5.888;2023-04-19T02:29:53;102457.97;;;11.02;100.00
32320;BME280;19080;51.750;5.888;2023-04-19T02:32:20;102434.72;;;10.96;100.00
32320;BME280;19080;51.750;5.888;2023-04-19T02:34:46;102438.22;;;10.95;100.00
32320;BME280;19080;51.750;5.888;2023-04-19T02:37:13;102421.09;;;10.87;100.00
32320;BME280;19080;51.750;5.888;2023-04-19T02:39:40;102422.00;;;10.88;100.00
32320;BME280;19080;51.750;5.888;2023-04-19T02:42:08;102449.94;;;11.00;100.00
32320;BME280;19080;51.750;5.888;2023-04-19T02:44:36;102451.50;;;10.95;100.00
32320;BME280;19080;51.750;5.888;2023-04-19T02:47:03;102420.84;;;10.81;100.00
32320;BME280;19080;51.750;5.888;2023-04-19T02:49:30;102373.63;;;10.52;100.00
32320;BME280;19080;51.750;5.888;2023-04-19T02:52:03;102448.81;;;10.94;100.00
32320;BME280;19080;51.750;5.888;2023-04-19T02:54:32;102452.19;;;10.90;100.00
32320;BME280;19080;51.750;5.888;2023-04-19T02:56:59;102454.91;;;10.91;100.00
32320;BME280;19080;51.750;5.888;2023-04-19T02:59:26;102438.28;;;10.74;100.00
32320;BME280;19080;51.750;5.888;2023-04-19T03:01:54;102438.28;;;10.74;100.00
32320;BME280;19080;51.750;5.888;2023-04-19T03:04:23;102442.69;;;10.74;100.00
32320;BME280;19080;51.750;5.888;2023-04-19T03:06:51;102384.78;;;10.43;100.00
32320;BME280;19080;51.750;5.888;2023-04-19T03:09:18;102462.69;;;10.87;100.00
32320;BME280;19080;51.750;5.888;2023-04-19T03:11:45;102424.03;;;10.50;100.00
32320;BME280;19080;51.750;5.888;2023-04-19T03:14:13;102430.22;;;10.51;100.00
32320;BME280;19080;51.750;5.888;2023-04-19T03:16:40;102449.00;;;10.55;100.00
32320;BME280;19080;51.750;5.888;2023-04-19T03:19:07;102391.56;;;10.14;100.00
32320;BME280;19080;51.750;5.888;2023-04-19T03:21:40;102348.09;;;9.69;100.00
32320;BME280;19080;51.750;5.888;2023-04-19T03:24:08;102440.88;;;10.09;100.00
32320;BME280;19080;51.750;5.888;2023-04-19T03:26:38;102424.03;;;9.88;100.00
32320;BME280;19080;51.750;5.888;2023-04-19T03:29:05;102441.00;;;9.91;100.00
32320;BME280;19080;51.750;5.888;2023-04-19T03:31:48;102467.00;;;10.00;100.00
32320;BME280;19080;51.750;5.888;2023-04-19T03:34:16;102456.97;;;9.93;100.00
32320;BME280;19080;51.750;5.888;2023-04-19T03:36:45;102421.41;;;9.68;100.00
32320;BME280;19080;51.750;5.888;2023-04-19T03:39:13;102461.66;;;9.79;100.00
32320;BME280;19080;51.750;5.888;2023-04-19T03:41:42;102446.56;;;9.57;100.00
32320;BME280;19080;51.750;5.888;2023-04-19T03:44:33;102428.56;;;9.31;100.00
32320;BME280;19080;51.750;5.888;2023-04-19T03:47:02;102457.91;;;9.35;100.00
32320;BME280;19080;51.750;5.888;2023-04-19T03:49:34;102430.44;;;9.14;100.00
32320;BME280;19080;51.750;5.888;2023-04-19T03:52:03;102443.59;;;9.12;100.00
32320;BME280;19080;51.750;5.888;2023-04-19T03:54:32;102397.97;;;8.81;100.00
32320;BME280;19080;51.750;5.888;2023-04-19T03:56:59;102353.31;;;8.50;100.00
32320;BME280;19080;51.750;5.888;2023-04-19T03:59:27;102419.03;;;8.78;100.00
32320;BME280;19080;51.750;5.888;2023-04-19T04:01:54;102413.28;;;8.69;100.00
32320;BME280;19080;51.750;5.888;2023-04-19T04:04:21;102454.72;;;8.86;100.00
32320;BME280;19080;51.750;5.888;2023-04-19T04:06:48;102456.38;;;8.84;100.00
32320;BME280;19080;51.750;5.888;2023-04-19T04:09:15;102429.25;;;8.70;100.00
32320;BME280;19080;51.750;5.888;2023-04-19T04:11:43;102402.97;;;8.56;100.00
32320;BME280;19080;51.750;5.888;2023-04-19T04:14:10;102451.22;;;8.87;100.00
32320;BME280;19080;51.750;5.888;2023-04-19T04:16:37;102353.47;;;8.35;100.00
32320;BME280;19080;51.750;5.888;2023-04-19T04:19:05;102442.31;;;8.85;100.00
32320;BME280;19080;51.750;5.888;2023-04-19T04:21:35;102411.91;;;8.77;100.00
32320;BME280;19080;51.750;5.888;2023-04-19T04:24:03;102415.53;;;8.79;100.00
32320;BME280;19080;51.750;5.888;2023-04-19T04:26:49;102441.97;;;8.97;100.00
32320;BME280;19080;51.750;5.888;2023-04-19T04:29:23;102415.53;;;8.79;100.00
32320;BME280;19080;51.750;5.888;2023-04-19T04:31:52;102429.06;;;8.85;100.00
32320;BME280;19080;51.750;5.888;2023-04-19T04:34:24;102433.66;;;8.89;100.00
32320;BME280;19080;51.750;5.888;2023-04-19T04:36:58;102437.00;;;8.85;100.00
32320;BME280;19080;51.750;5.888;2023-04-19T04:39:26;102434.91;;;8.78;100.00
32320;BME280;19080;51.750;5.888;2023-04-19T04:41:52;102425.44;;;8.83;100.00
32320;BME280;19080;51.750;5.888;2023-04-19T04:44:19;102454.75;;;9.05;100.00
32320;BME280;19080;51.750;5.888;2023-04-19T04:46:46;102431.47;;;8.98;100.00
32320;BME280;19080;51.750;5.888;2023-04-19T04:49:19;102396.31;;;8.83;100.00
32320;BME280;19080;51.750;5.888;2023-04-19T04:51:46;102422.09;;;8.87;100.00
32320;BME280;19080;51.750;5.888;2023-04-19T04:54:13;102453.91;;;9.06;100.00
32320;BME280;19080;51.750;5.888;2023-04-19T04:56:41;102426.56;;;8.88;100.00
32320;BME280;19080;51.750;5.888;2023-04-19T04:59:08;102437.38;;;8.93;100.00
32320;BME280;19080;51.750;5.888;2023-04-19T05:01:38;102434.66;;;8.91;100.00
32320;BME280;19080;51.750;5.888;2023-04-19T05:04:05;102433.06;;;8.95;100.00
32320;BME280;19080;51.750;5.888;2023-04-19T05:06:32;102427.16;;;9.00;100.00
32320;BME280;19080;51.750;5.888;2023-04-19T05:08:58;102459.66;;;9.16;100.00
32320;BME280;19080;51.750;5.888;2023-04-19T05:11:31;102477.94;;;9.29;100.00
32320;BME280;19080;51.750;5.888;2023-04-19T05:13:57;102461.13;;;9.28;100.00
32320;BME280;19080;51.750;5.888;2023-04-19T05:16:25;102467.47;;;9.51;100.00
32320;BME280;19080;51.750;5.888;2023-04-19T05:18:53;102436.72;;;9.35;100.00
32320;BME280;19080;51.750;5.888;2023-04-19T05:21:20;102437.63;;;9.55;100.00
32320;BME280;19080;51.750;5.888;2023-04-19T05:23:47;102400.66;;;9.39;100.00
32320;BME280;19080;51.750;5.888;2023-04-19T05:26:14;102460.97;;;9.64;100.00
32320;BME280;19080;51.750;5.888;2023-04-19T05:28:43;102445.44;;;9.52;100.00
32320;BME280;19080;51.750;5.888;2023-04-19T05:31:18;102450.09;;;9.58;100.00
32320;BME280;19080;51.750;5.888;2023-04-19T05:34:11;102485.06;;;9.68;100.00
32320;BME280;19080;51.750;5.888;2023-04-19T05:36:37;102457.78;;;9.52;100.00
32320;BME280;19080;51.750;5.888;2023-04-19T05:39:04;102463.78;;;9.48;100.00
32320;BME280;19080;51.750;5.888;2023-04-19T05:41:31;102493.63;;;9.63;100.00
32320;BME280;19080;51.750;5.888;2023-04-19T05:43:57;102455.75;;;9.46;100.00
32320;BME280;19080;51.750;5.888;2023-04-19T05:46:25;102456.47;;;9.42;100.00
32320;BME280;19080;51.750;5.888;2023-04-19T05:48:52;102478.28;;;9.56;100.00
32320;BME280;19080;51.750;5.888;2023-04-19T05:51:37;102450.88;;;9.36;100.00
32320;BME280;19080;51.750;5.888;2023-04-19T05:54:18;102497.34;;;9.66;100.00
32320;BME280;19080;51.750;5.888;2023-04-19T05:56:47;102486.66;;;9.65;100.00
32320;BME280;19080;51.750;5.888;2023-04-19T05:59:13;102477.66;;;9.61;100.00
32320;BME280;19080;51.750;5.888;2023-04-19T06:01:41;102470.53;;;9.60;100.00
32320;BME280;19080;51.750;5.888;2023-04-19T06:04:07;102477.44;;;9.76;100.00
32320;BME280;19080;51.750;5.888;2023-04-19T06:06:34;102474.78;;;9.76;100.00
32320;BME280;19080;51.750;5.888;2023-04-19T06:09:04;102472.34;;;9.81;100.00
32320;BME280;19080;51.750;5.888;2023-04-19T06:11:32;102469.00;;;9.85;100.00
32320;BME280;19080;51.750;5.888;2023-04-19T06:14:12;102448.53;;;9.82;100.00
32320;BME280;19080;51.750;5.888;2023-04-19T06:16:41;102465.13;;;9.97;100.00
32320;BME280;19080;51.750;5.888;2023-04-19T06:19:07;102463.50;;;10.01;100.00
32320;BME280;19080;51.750;5.888;2023-04-19T06:21:34;102471.59;;;10.04;100.00
32320;BME280;19080;51.750;5.888;2023-04-19T06:24:01;102489.03;;;10.18;100.00
32320;BME280;19080;51.750;5.888;2023-04-19T06:26:27;102388.69;;;9.68;100.00
32320;BME280;19080;51.750;5.888;2023-04-19T06:28:54;102452.66;;;10.16;100.00
32320;BME280;19080;51.750;5.888;2023-04-19T06:31:21;102459.00;;;10.19;100.00
32320;BME280;19080;51.750;5.888;2023-04-19T06:33:47;102496.41;;;10.46;100.00
32320;BME280;19080;51.750;5.888;2023-04-19T06:36:14;102477.56;;;10.38;100.00
32320;BME280;19080;51.750;5.888;2023-04-19T06:38:41;102456.78;;;10.28;100.00
32320;BME280;19080;51.750;5.888;2023-04-19T06:41:09;102490.72;;;10.58;98.96
32320;BME280;19080;51.750;5.888;2023-04-19T06:43:36;102487.72;;;10.71;99.39
32320;BME280;19080;51.750;5.888;2023-04-19T06:46:03;102485.88;;;10.91;99.69
32320;BME280;19080;51.750;5.888;2023-04-19T06:48:33;102472.88;;;11.21;87.78
32320;BME280;19080;51.750;5.888;2023-04-19T06:51:00;102466.00;;;11.50;81.73
32320;BME280;19080;51.750;5.888;2023-04-19T06:53:26;102480.44;;;12.04;80.20
32320;BME280;19080;51.750;5.888;2023-04-19T06:56:01;102470.72;;;12.31;78.01
32320;BME280;19080;51.750;5.888;2023-04-19T06:58:28;102457.47;;;12.60;70.83
32320;BME280;19080;51.750;5.888;2023-04-19T07:00:54;102406.91;;;12.61;67.97
32320;BME280;19080;51.750;5.888;2023-04-19T07:03:22;102482.88;;;13.31;63.35
32320;BME280;19080;51.750;5.888;2023-04-19T07:05:49;102408.19;;;13.02;62.50
32320;BME280;19080;51.750;5.888;2023-04-19T07:08:17;102484.13;;;13.74;60.60
32320;BME280;19080;51.750;5.888;2023-04-19T07:10:44;102456.75;;;13.81;57.72
32320;BME280;19080;51.750;5.888;2023-04-19T07:13:11;102463.41;;;13.65;58.14
32320;BME280;19080;51.750;5.888;2023-04-19T07:15:37;102475.34;;;13.78;56.98
32320;BME280;19080;51.750;5.888;2023-04-19T07:18:04;102489.88;;;13.89;55.65
32320;BME280;19080;51.750;5.888;2023-04-19T07:20:31;102489.41;;;14.05;55.90
32320;BME280;19080;51.750;5.888;2023-04-19T07:22:58;102475.06;;;14.34;52.97
32320;BME280;19080;51.750;5.888;2023-04-19T07:25:25;102480.34;;;14.31;52.94
32320;BME280;19080;51.750;5.888;2023-04-19T07:27:52;102466.28;;;14.39;51.48
32320;BME280;19080;51.750;5.888;2023-04-19T07:30:20;102399.75;;;14.13;49.94
32320;BME280;19080;51.750;5.888;2023-04-19T07:32:46;102427.41;;;14.50;49.68
32320;BME280;19080;51.750;5.888;2023-04-19T07:35:13;102405.19;;;14.52;48.31
32320;BME280;19080;51.750;5.888;2023-04-19T07:37:40;102478.28;;;15.29;46.21
32320;BME280;19080;51.750;5.888;2023-04-19T07:40:07;102463.59;;;15.11;46.59
32320;BME280;19080;51.750;5.888;2023-04-19T07:42:34;102481.84;;;15.28;46.48
32320;BME280;19080;51.750;5.888;2023-04-19T07:45:01;102459.25;;;15.16;45.98
32320;BME280;19080;51.750;5.888;2023-04-19T07:47:28;102487.88;;;15.20;45.68
32320;BME280;19080;51.750;5.888;2023-04-19T07:49:54;102452.84;;;15.08;44.92
32320;BME280;19080;51.750;5.888;2023-04-19T07:52:21;102479.78;;;15.17;44.38
32320;BME280;19080;51.750;5.888;2023-04-19T07:54:48;102450.88;;;15.01;44.49
32320;BME280;19080;51.750;5.888;2023-04-19T07:57:15;102477.13;;;15.17;44.72
32320;BME280;19080;51.750;5.888;2023-04-19T07:59:41;102490.75;;;15.29;44.46
32320;BME280;19080;51.750;5.888;2023-04-19T08:02:08;102474.84;;;15.35;43.86
32320;BME280;19080;51.750;5.888;2023-04-19T08:04:34;102474.56;;;15.63;43.57
32320;BME280;19080;51.750;5.888;2023-04-19T08:07:03;102484.13;;;15.96;43.97
32320;BME280;19080;51.750;5.888;2023-04-19T08:09:32;102458.34;;;16.01;43.54
32320;BME280;19080;51.750;5.888;2023-04-19T08:11:59;102490.84;;;16.21;42.97
32320;BME280;19080;51.750;5.888;2023-04-19T08:14:26;102379.94;;;15.61;42.67
32320;BME280;19080;51.750;5.888;2023-04-19T08:17:03;102398.56;;;16.04;41.69
32320;BME280;19080;51.750;5.888;2023-04-19T08:19:33;102468.41;;;16.14;41.68
32320;BME280;19080;51.750;5.888;2023-04-19T08:21:59;102444.44;;;16.23;41.39
32320;BME280;19080;51.750;5.888;2023-04-19T08:24:26;102452.41;;;16.70;40.81
32320;BME280;19080;51.750;5.888;2023-04-19T08:26:52;102459.25;;;16.53;40.46
32320;BME280;19080;51.750;5.888;2023-04-19T08:29:20;102452.97;;;16.51;41.47
32320;BME280;19080;51.750;5.888;2023-04-19T08:31:47;102406.41;;;16.46;40.14
32320;BME280;19080;51.750;5.888;2023-04-19T08:34:14;102463.25;;;16.76;39.98
32320;BME280;19080;51.750;5.888;2023-04-19T08:36:41;102471.13;;;16.67;39.69
32320;BME280;19080;51.750;5.888;2023-04-19T08:39:08;102475.97;;;16.89;40.21
32320;BME280;19080;51.750;5.888;2023-04-19T08:41:50;102459.94;;;16.94;39.20
32320;BME280;19080;51.750;5.888;2023-04-19T08:44:31;102461.69;;;16.92;38.94
32320;BME280;19080;51.750;5.888;2023-04-19T08:47:05;102417.59;;;16.73;38.86
32320;BME280;19080;51.750;5.888;2023-04-19T08:49:35;102454.25;;;16.73;39.25
32320;BME280;19080;51.750;5.888;2023-04-19T08:52:03;102469.25;;;16.63;41.35
32320;BME280;19080;51.750;5.888;2023-04-19T08:54:34;102464.03;;;16.69;39.96
32320;BME280;19080;51.750;5.888;2023-04-19T08:57:01;102447.03;;;16.69;39.27
32320;BME280;19080;51.750;5.888;2023-04-19T08:59:28;102447.97;;;16.72;39.02
32320;BME280;19080;51.750;5.888;2023-04-19T09:01:59;102461.59;;;16.86;39.04
32320;BME280;19080;51.750;5.888;2023-04-19T09:04:26;102457.16;;;16.86;39.44
32320;BME280;19080;51.750;5.888;2023-04-19T09:07:03;102410.25;;;16.63;39.63
32320;BME280;19080;51.750;5.888;2023-04-19T09:09:30;102427.03;;;17.07;39.98
32320;BME280;19080;51.750;5.888;2023-04-19T09:12:16;102450.94;;;17.58;38.72
32320;BME280;19080;51.750;5.888;2023-04-19T09:14:45;102418.91;;;17.74;37.48
32320;BME280;19080;51.750;5.888;2023-04-19T09:17:15;102424.56;;;17.98;37.61
32320;BME280;19080;51.750;5.888;2023-04-19T09:19:49;102449.97;;;18.34;36.58
32320;BME280;19080;51.750;5.888;2023-04-19T09:22:16;102367.25;;;18.02;37.56
32320;BME280;19080;51.750;5.888;2023-04-19T09:24:44;102423.38;;;18.67;35.64
32320;BME280;19080;51.750;5.888;2023-04-19T09:27:33;102433.84;;;18.34;35.74
32320;BME280;19080;51.750;5.888;2023-04-19T09:30:04;102424.81;;;18.26;35.22
32320;BME280;19080;51.750;5.888;2023-04-19T09:32:45;102448.13;;;18.27;35.45
32320;BME280;19080;51.750;5.888;2023-04-19T09:35:13;102425.53;;;18.08;34.72
32320;BME280;19080;51.750;5.888;2023-04-19T09:37:40;102421.13;;;18.14;34.07
32320;BME280;19080;51.750;5.888;2023-04-19T09:40:27;102431.16;;;18.34;33.37
32320;BME280;19080;51.750;5.888;2023-04-19T09:42:54;102385.41;;;18.31;31.36
32320;BME280;19080;51.750;5.888;2023-04-19T09:45:43;102410.28;;;18.05;32.21
32320;BME280;19080;51.750;5.888;2023-04-19T09:48:12;102436.97;;;17.87;31.96
32320;BME280;19080;51.750;5.888;2023-04-19T09:50:53;102411.56;;;17.61;32.63
32320;BME280;19080;51.750;5.888;2023-04-19T09:53:29;102373.63;;;17.27;32.93
32320;BME280;19080;51.750;5.888;2023-04-19T09:55:56;102412.34;;;17.50;33.18
32320;BME280;19080;51.750;5.888;2023-04-19T09:58:28;102411.53;;;17.57;33.10
32320;BME280;19080;51.750;5.888;2023-04-19T10:01:12;102431.41;;;17.69;33.32
32320;BME280;19080;51.750;5.888;2023-04-19T10:03:48;102402.97;;;17.89;32.05
32320;BME280;19080;51.750;5.888;2023-04-19T10:06:17;102416.16;;;17.68;32.42
32320;BME280;19080;51.750;5.888;2023-04-19T10:11:37;102298.25;;;17.98;33.11
32320;BME280;19080;51.750;5.888;2023-04-19T10:14:38;102403.88;;;19.02;33.44
32320;BME280;19080;51.750;5.888;2023-04-19T10:17:05;102395.00;;;19.36;32.77
32320;BME280;19080;51.750;5.888;2023-04-19T10:19:34;102407.72;;;19.65;31.41
32320;BME280;19080;51.750;5.888;2023-04-19T10:22:01;102402.22;;;19.43;31.51
32320;BME280;19080;51.750;5.888;2023-04-19T10:24:30;102422.06;;;19.58;32.45
32320;BME280;19080;51.750;5.888;2023-04-19T10:27:12;102351.88;;;19.24;32.47
32320;BME280;19080;51.750;5.888;2023-04-19T10:29:59;102405.03;;;19.72;32.00
32320;BME280;19080;51.750;5.888;2023-04-19T10:32:29;102366.44;;;19.81;32.21
32320;BME280;19080;51.750;5.888;2023-04-19T10:35:01;102410.47;;;20.01;31.69
32320;BME280;19080;51.750;5.888;2023-04-19T10:37:30;102375.41;;;19.75;30.79
32320;BME280;19080;51.750;5.888;2023-04-19T10:39:57;102389.78;;;19.83;31.39
32320;BME280;19080;51.750;5.888;2023-04-19T10:42:23;102405.06;;;19.85;31.45
32320;BME280;19080;51.750;5.888;2023-04-19T10:45:32;102398.75;;;19.78;31.59
32320;BME280;19080;51.750;5.888;2023-04-19T10:48:01;102384.38;;;19.70;31.34
32320;BME280;19080;51.750;5.888;2023-04-19T10:50:29;102397.03;;;20.59;31.04
32320;BME280;19080;51.750;5.888;2023-04-19T10:52:55;102370.03;;;20.65;29.96
32320;BME280;19080;51.750;5.888;2023-04-19T10:55:22;102375.44;;;20.32;29.64
32320;BME280;19080;51.750;5.888;2023-04-19T11:00:31;102395.22;;;20.75;29.70
32320;BME280;19080;51.750;5.888;2023-04-19T11:02:59;102391.47;;;21.11;29.45
32320;BME280;19080;51.750;5.888;2023-04-19T11:05:29;102369.69;;;21.54;28.20
32320;BME280;19080;51.750;5.888;2023-04-19T11:07:55;102369.59;;;21.69;26.72
32320;BME280;19080;51.750;5.888;2023-04-19T11:10:28;102333.81;;;21.30;26.20
32320;BME280;19080;51.750;5.888;2023-04-19T11:12:57;102378.56;;;21.77;26.09
32320;BME280;19080;51.750;5.888;2023-04-19T11:15:23;102369.41;;;21.96;26.45
32320;BME280;19080;51.750;5.888;2023-04-19T11:17:50;102344.47;;;21.52;25.48
32320;BME280;19080;51.750;5.888;2023-04-19T11:20:34;102359.84;;;21.42;25.91
32320;BME280;19080;51.750;5.888;2023-04-19T11:23:01;102309.16;;;21.81;26.44
32320;BME280;19080;51.750;5.888;2023-04-19T11:25:27;102330.63;;;22.02;25.52
32320;BME280;19080;51.750;5.888;2023-04-19T11:27:59;102282.97;;;21.87;24.94
32320;BME280;19080;51.750;5.888;2023-04-19T11:30:29;102307.50;;;22.59;24.73
32320;BME280;19080;51.750;5.888;2023-04-19T11:32:56;102331.09;;;22.48;25.33
32320;BME280;19080;51.750;5.888;2023-04-19T11:35:25;102332.94;;;22.46;25.22
32320;BME280;19080;51.750;5.888;2023-04-19T11:37:53;102303.41;;;22.23;24.75
32320;BME280;19080;51.750;5.888;2023-04-19T11:40:22;102320.59;;;22.99;25.07
32320;BME280;19080;51.750;5.888;2023-04-19T11:43:00;102295.97;;;23.79;24.69
32320;BME280;19080;51.750;5.888;2023-04-19T11:45:31;102322.03;;;23.87;24.12
32320;BME280;19080;51.750;5.888;2023-04-19T11:48:04;102314.25;;;23.00;23.16
32320;BME280;19080;51.750;5.888;2023-04-19T11:50:39;102276.09;;;23.17;22.92
32320;BME280;19080;51.750;5.888;2023-04-19T11:55:37;102312.06;;;23.89;23.93
32320;BME280;19080;51.750;5.888;2023-04-19T11:58:07;102288.59;;;23.87;22.78
32320;BME280;19080;51.750;5.888;2023-04-19T12:00:36;102303.16;;;23.81;22.67
32320;BME280;19080;51.750;5.888;2023-04-19T12:03:03;102281.72;;;23.66;22.28
32320;BME280;19080;51.750;5.888;2023-04-19T12:05:30;102288.31;;;23.47;22.44
32320;BME280;19080;51.750;5.888;2023-04-19T12:07:59;102261.16;;;23.50;22.56
32320;BME280;19080;51.750;5.888;2023-04-19T12:10:26;102282.53;;;23.71;21.66
32320;BME280;19080;51.750;5.888;2023-04-19T12:12:53;102281.00;;;23.52;21.73
32320;BME280;19080;51.750;5.888;2023-04-19T12:15:20;102261.31;;;23.39;21.94
32320;BME280;19080;51.750;5.888;2023-04-19T12:17:58;102260.09;;;23.00;22.00
32320;BME280;19080;51.750;5.888;2023-04-19T12:20:35;102299.28;;;23.37;21.95
32320;BME280;19080;51.750;5.888;2023-04-19T12:23:02;102265.59;;;23.57;22.62
32320;BME280;19080;51.750;5.888;2023-04-19T12:25:30;102286.69;;;23.35;22.05
32320;BME280;19080;51.750;5.888;2023-04-19T12:27:59;102225.66;;;23.66;21.77
32320;BME280;19080;51.750;5.888;2023-04-19T12:30:26;102273.13;;;23.93;21.89
32320;BME280;19080;51.750;5.888;2023-04-19T12:32:53;102262.06;;;24.04;21.25
32320;BME280;19080;51.750;5.888;2023-04-19T12:35:21;102272.38;;;24.33;20.29
32320;BME280;19080;51.750;5.888;2023-04-19T12:37:48;102254.84;;;24.51;20.76
32320;BME280;19080;51.750;5.888;2023-04-19T12:40:15;102247.25;;;25.48;20.77
32320;BME280;19080;51.750;5.888;2023-04-19T12:42:42;102246.47;;;25.43;20.24
32320;BME280;19080;51.750;5.888;2023-04-19T12:45:09;102255.97;;;25.25;19.83
32320;BME280;19080;51.750;5.888;2023-04-19T12:47:37;102251.03;;;25.04;20.10
32320;BME280;19080;51.750;5.888;2023-04-19T12:50:05;102249.72;;;24.79;20.09
32320;BME280;19080;51.750;5.888;2023-04-19T12:52:32;102185.09;;;24.54;20.81
32320;BME280;19080;51.750;5.888;2023-04-19T12:54:59;102243.75;;;23.06;21.83
32320;BME280;19080;51.750;5.888;2023-04-19T12:57:26;102223.19;;;22.91;21.97
32320;BME280;19080;51.750;5.888;2023-04-19T12:59:53;102221.56;;;22.03;22.85
32320;BME280;19080;51.750;5.888;2023-04-19T13:02:19;102196.63;;;23.16;22.40
32320;BME280;19080;51.750;5.888;2023-04-19T13:04:46;102218.66;;;24.04;22.25
32320;BME280;19080;51.750;5.888;2023-04-19T13:07:13;102217.38;;;24.23;22.45